Terminal Aerodrome Forecast
Issued by NWS

Current Version | Previous Version | Text Only | Print | Product List | Glossary On
Versions: 1 2 3 4 5 6 7 8 9 10 11 12 13
000
FTUS46 KSTO 271400 AAA
TAFSAC
TAF AMD
KSAC 271405Z 2714/2812 VRB04KT P6SM SKC
      TEMPO 2714/2716 5SM BR
     FM272100 21010KT P6SM FEW250=

USA.gov is the U.S. government's official web portal to all federal, state and local government web resources and services.